sensor_id;sensor_type;location;lat;lon;timestamp;P1;durP1;ratioP1;P2;durP2;ratioP2
59907;SDS011;61804;54.926;73.496;2022-12-16T00:02:02;28.42;;;13.18;;
59907;SDS011;61804;54.926;73.496;2022-12-16T00:04:40;30.67;;;16.88;;
59907;SDS011;61804;54.926;73.496;2022-12-16T00:07:08;14.75;;;10.85;;
59907;SDS011;61804;54.926;73.496;2022-12-16T00:09:35;44.92;;;16.67;;
59907;SDS011;61804;54.926;73.496;2022-12-16T00:12:03;13.25;;;7.82;;
59907;SDS011;61804;54.926;73.496;2022-12-16T00:14:31;70.55;;;33.38;;
59907;SDS011;61804;54.926;73.496;2022-12-16T00:16:58;23.50;;;9.88;;
59907;SDS011;61804;54.926;73.496;2022-12-16T00:19:36;8.07;;;5.05;;
59907;SDS011;61804;54.926;73.496;2022-12-16T00:22:04;19.10;;;7.72;;
59907;SDS011;61804;54.926;73.496;2022-12-16T00:24:43;35.78;;;13.75;;
59907;SDS011;61804;54.926;73.496;2022-12-16T00:27:11;14.55;;;6.00;;
59907;SDS011;61804;54.926;73.496;2022-12-16T00:29:50;14.68;;;4.15;;
59907;SDS011;61804;54.926;73.496;2022-12-16T00:32:22;18.00;;;9.02;;
59907;SDS011;61804;54.926;73.496;2022-12-16T00:34:50;27.33;;;15.63;;
59907;SDS011;61804;54.926;73.496;2022-12-16T00:37:17;26.80;;;18.20;;
59907;SDS011;61804;54.926;73.496;2022-12-16T00:39:45;15.98;;;11.65;;
59907;SDS011;61804;54.926;73.496;2022-12-16T00:42:17;25.42;;;13.88;;
59907;SDS011;61804;54.926;73.496;2022-12-16T00:44:50;23.25;;;12.75;;
59907;SDS011;61804;54.926;73.496;2022-12-16T00:47:28;10.23;;;6.65;;
59907;SDS011;61804;54.926;73.496;2022-12-16T00:49:55;20.50;;;7.40;;
59907;SDS011;61804;54.926;73.496;2022-12-16T00:52:23;37.70;;;22.58;;
59907;SDS011;61804;54.926;73.496;2022-12-16T00:54:50;10.05;;;8.13;;
59907;SDS011;61804;54.926;73.496;2022-12-16T00:57:28;27.73;;;15.60;;
59907;SDS011;61804;54.926;73.496;2022-12-16T00:59:56;17.48;;;11.18;;
59907;SDS011;61804;54.926;73.496;2022-12-16T01:02:23;17.85;;;9.48;;
59907;SDS011;61804;54.926;73.496;2022-12-16T01:05:03;24.52;;;11.80;;
59907;SDS011;61804;54.926;73.496;2022-12-16T01:07:30;9.68;;;5.25;;
59907;SDS011;61804;54.926;73.496;2022-12-16T01:09:58;4.25;;;2.63;;
59907;SDS011;61804;54.926;73.496;2022-12-16T01:12:26;10.93;;;6.35;;
59907;SDS011;61804;54.926;73.496;2022-12-16T01:15:05;19.35;;;6.85;;
59907;SDS011;61804;54.926;73.496;2022-12-16T01:17:34;10.77;;;6.38;;
59907;SDS011;61804;54.926;73.496;2022-12-16T01:20:07;8.68;;;6.38;;
59907;SDS011;61804;54.926;73.496;2022-12-16T01:22:40;5.07;;;4.32;;
59907;SDS011;61804;54.926;73.496;2022-12-16T01:25:13;10.07;;;5.28;;
59907;SDS011;61804;54.926;73.496;2022-12-16T01:27:41;2.53;;;2.20;;
59907;SDS011;61804;54.926;73.496;2022-12-16T01:30:09;10.68;;;9.70;;
59907;SDS011;61804;54.926;73.496;2022-12-16T01:32:48;14.93;;;9.23;;
59907;SDS011;61804;54.926;73.496;2022-12-16T01:35:21;12.05;;;6.97;;
59907;SDS011;61804;54.926;73.496;2022-12-16T01:37:48;16.77;;;7.13;;
59907;SDS011;61804;54.926;73.496;2022-12-16T01:40:20;20.67;;;13.38;;
59907;SDS011;61804;54.926;73.496;2022-12-16T01:42:48;11.13;;;6.15;;
59907;SDS011;61804;54.926;73.496;2022-12-16T01:45:33;17.95;;;15.65;;
59907;SDS011;61804;54.926;73.496;2022-12-16T01:48:14;12.10;;;8.07;;
59907;SDS011;61804;54.926;73.496;2022-12-16T01:50:46;8.40;;;6.23;;
59907;SDS011;61804;54.926;73.496;2022-12-16T01:53:15;15.60;;;5.32;;
59907;SDS011;61804;54.926;73.496;2022-12-16T01:55:44;31.02;;;12.40;;
59907;SDS011;61804;54.926;73.496;2022-12-16T01:58:21;17.73;;;9.98;;
59907;SDS011;61804;54.926;73.496;2022-12-16T02:00:51;7.63;;;5.72;;
59907;SDS011;61804;54.926;73.496;2022-12-16T02:03:18;17.55;;;10.38;;
59907;SDS011;61804;54.926;73.496;2022-12-16T02:05:47;8.85;;;6.97;;
59907;SDS011;61804;54.926;73.496;2022-12-16T02:08:15;15.45;;;7.47;;
59907;SDS011;61804;54.926;73.496;2022-12-16T02:21:09;9.95;;;6.70;;
59907;SDS011;61804;54.926;73.496;2022-12-16T02:24:00;15.27;;;8.45;;
59907;SDS011;61804;54.926;73.496;2022-12-16T02:29:30;9.88;;;7.15;;
59907;SDS011;61804;54.926;73.496;2022-12-16T02:39:49;12.15;;;6.68;;
59907;SDS011;61804;54.926;73.496;2022-12-16T02:42:22;24.13;;;13.15;;
59907;SDS011;61804;54.926;73.496;2022-12-16T02:44:54;6.13;;;4.40;;
59907;SDS011;61804;54.926;73.496;2022-12-16T02:47:25;16.27;;;9.20;;
59907;SDS011;61804;54.926;73.496;2022-12-16T02:49:52;14.20;;;5.53;;
59907;SDS011;61804;54.926;73.496;2022-12-16T02:52:22;16.52;;;5.88;;
59907;SDS011;61804;54.926;73.496;2022-12-16T02:54:51;14.73;;;7.72;;
59907;SDS011;61804;54.926;73.496;2022-12-16T02:57:30;16.83;;;5.78;;
59907;SDS011;61804;54.926;73.496;2022-12-16T03:00:07;11.95;;;10.63;;
59907;SDS011;61804;54.926;73.496;2022-12-16T03:03:32;44.08;;;22.27;;
59907;SDS011;61804;54.926;73.496;2022-12-16T03:05:41;13.23;;;7.18;;
59907;SDS011;61804;54.926;73.496;2022-12-16T03:08:12;8.70;;;4.55;;
59907;SDS011;61804;54.926;73.496;2022-12-16T03:10:42;12.10;;;7.53;;
59907;SDS011;61804;54.926;73.496;2022-12-16T03:13:11;6.55;;;5.57;;
59907;SDS011;61804;54.926;73.496;2022-12-16T03:15:39;17.30;;;9.13;;
59907;SDS011;61804;54.926;73.496;2022-12-16T03:18:08;8.32;;;5.72;;
59907;SDS011;61804;54.926;73.496;2022-12-16T03:23:09;11.00;;;7.47;;
59907;SDS011;61804;54.926;73.496;2022-12-16T03:25:37;23.40;;;9.70;;
59907;SDS011;61804;54.926;73.496;2022-12-16T03:30:42;30.23;;;13.45;;
59907;SDS011;61804;54.926;73.496;2022-12-16T03:33:13;4.97;;;4.47;;
59907;SDS011;61804;54.926;73.496;2022-12-16T03:35:49;10.35;;;9.13;;
59907;SDS011;61804;54.926;73.496;2022-12-16T03:38:17;32.75;;;18.92;;
59907;SDS011;61804;54.926;73.496;2022-12-16T03:40:48;18.42;;;10.15;;
59907;SDS011;61804;54.926;73.496;2022-12-16T03:43:16;60.10;;;32.17;;
59907;SDS011;61804;54.926;73.496;2022-12-16T03:45:44;19.83;;;16.00;;
59907;SDS011;61804;54.926;73.496;2022-12-16T03:48:17;13.30;;;8.55;;
59907;SDS011;61804;54.926;73.496;2022-12-16T03:50:49;17.85;;;7.93;;
59907;SDS011;61804;54.926;73.496;2022-12-16T03:53:17;17.13;;;8.68;;
59907;SDS011;61804;54.926;73.496;2022-12-16T03:55:44;23.23;;;12.32;;
59907;SDS011;61804;54.926;73.496;2022-12-16T03:58:12;24.38;;;13.30;;
59907;SDS011;61804;54.926;73.496;2022-12-16T04:00:40;32.88;;;14.27;;
59907;SDS011;61804;54.926;73.496;2022-12-16T04:03:12;27.00;;;15.30;;
59907;SDS011;61804;54.926;73.496;2022-12-16T04:05:40;17.88;;;11.15;;
59907;SDS011;61804;54.926;73.496;2022-12-16T04:08:07;31.42;;;11.65;;
59907;SDS011;61804;54.926;73.496;2022-12-16T04:10:35;79.28;;;32.40;;
59907;SDS011;61804;54.926;73.496;2022-12-16T04:13:26;141.25;;;69.25;;
59907;SDS011;61804;54.926;73.496;2022-12-16T04:16:15;159.02;;;77.70;;
59907;SDS011;61804;54.926;73.496;2022-12-16T04:19:16;67.97;;;41.83;;
59907;SDS011;61804;54.926;73.496;2022-12-16T04:22:03;29.98;;;15.63;;
59907;SDS011;61804;54.926;73.496;2022-12-16T04:24:50;45.15;;;26.70;;
59907;SDS011;61804;54.926;73.496;2022-12-16T04:27:18;63.60;;;30.02;;
59907;SDS011;61804;54.926;73.496;2022-12-16T04:29:52;26.90;;;15.93;;
59907;SDS011;61804;54.926;73.496;2022-12-16T04:32:38;33.90;;;17.88;;
59907;SDS011;61804;54.926;73.496;2022-12-16T04:35:28;20.98;;;11.52;;
59907;SDS011;61804;54.926;73.496;2022-12-16T04:38:14;12.30;;;9.35;;
59907;SDS011;61804;54.926;73.496;2022-12-16T04:41:00;14.55;;;10.77;;
59907;SDS011;61804;54.926;73.496;2022-12-16T04:43:54;20.63;;;13.32;;
59907;SDS011;61804;54.926;73.496;2022-12-16T04:46:40;22.58;;;11.30;;
59907;SDS011;61804;54.926;73.496;2022-12-16T04:49:32;23.17;;;12.88;;
59907;SDS011;61804;54.926;73.496;2022-12-16T04:55:04;23.42;;;12.25;;
59907;SDS011;61804;54.926;73.496;2022-12-16T04:57:52;20.02;;;12.68;;
59907;SDS011;61804;54.926;73.496;2022-12-16T05:00:48;41.35;;;17.15;;
59907;SDS011;61804;54.926;73.496;2022-12-16T05:03:36;17.60;;;10.45;;
59907;SDS011;61804;54.926;73.496;2022-12-16T05:06:23;27.60;;;15.23;;
59907;SDS011;61804;54.926;73.496;2022-12-16T05:09:09;21.40;;;11.98;;
59907;SDS011;61804;54.926;73.496;2022-12-16T05:11:55;17.67;;;8.75;;
59907;SDS011;61804;54.926;73.496;2022-12-16T05:17:26;20.58;;;10.95;;
59907;SDS011;61804;54.926;73.496;2022-12-16T05:20:17;17.40;;;11.57;;
59907;SDS011;61804;54.926;73.496;2022-12-16T05:23:03;22.75;;;16.17;;
59907;SDS011;61804;54.926;73.496;2022-12-16T05:25:49;18.65;;;11.30;;
59907;SDS011;61804;54.926;73.496;2022-12-16T05:28:35;16.30;;;10.23;;
59907;SDS011;61804;54.926;73.496;2022-12-16T05:31:21;18.90;;;10.63;;
59907;SDS011;61804;54.926;73.496;2022-12-16T05:36:52;17.50;;;9.93;;
59907;SDS011;61804;54.926;73.496;2022-12-16T05:39:51;24.30;;;16.30;;
59907;SDS011;61804;54.926;73.496;2022-12-16T05:42:47;20.38;;;14.80;;
59907;SDS011;61804;54.926;73.496;2022-12-16T05:48:18;41.70;;;25.48;;
59907;SDS011;61804;54.926;73.496;2022-12-16T05:51:04;26.27;;;12.00;;
59907;SDS011;61804;54.926;73.496;2022-12-16T05:53:49;29.55;;;21.70;;
59907;SDS011;61804;54.926;73.496;2022-12-16T05:56:35;22.45;;;13.90;;
59907;SDS011;61804;54.926;73.496;2022-12-16T05:59:22;23.83;;;13.85;;
59907;SDS011;61804;54.926;73.496;2022-12-16T06:02:08;21.45;;;15.60;;
59907;SDS011;61804;54.926;73.496;2022-12-16T06:04:55;20.27;;;12.90;;
59907;SDS011;61804;54.926;73.496;2022-12-16T06:07:41;12.18;;;8.15;;
59907;SDS011;61804;54.926;73.496;2022-12-16T06:10:27;55.45;;;37.67;;
59907;SDS011;61804;54.926;73.496;2022-12-16T06:13:19;15.55;;;11.90;;
59907;SDS011;61804;54.926;73.496;2022-12-16T06:16:04;22.85;;;11.10;;
59907;SDS011;61804;54.926;73.496;2022-12-16T06:19:00;15.32;;;9.90;;
59907;SDS011;61804;54.926;73.496;2022-12-16T06:21:46;23.10;;;11.48;;
59907;SDS011;61804;54.926;73.496;2022-12-16T06:24:32;22.30;;;16.50;;
59907;SDS011;61804;54.926;73.496;2022-12-16T06:27:18;21.70;;;14.88;;
59907;SDS011;61804;54.926;73.496;2022-12-16T06:32:49;16.55;;;11.18;;
59907;SDS011;61804;54.926;73.496;2022-12-16T06:35:35;21.15;;;13.35;;
59907;SDS011;61804;54.926;73.496;2022-12-16T06:38:21;20.95;;;12.13;;
59907;SDS011;61804;54.926;73.496;2022-12-16T06:41:07;14.77;;;11.05;;
59907;SDS011;61804;54.926;73.496;2022-12-16T06:43:59;18.75;;;13.48;;
59907;SDS011;61804;54.926;73.496;2022-12-16T06:46:55;20.67;;;14.68;;
59907;SDS011;61804;54.926;73.496;2022-12-16T06:49:41;22.73;;;14.35;;
59907;SDS011;61804;54.926;73.496;2022-12-16T06:52:26;21.45;;;12.68;;
59907;SDS011;61804;54.926;73.496;2022-12-16T06:55:18;16.58;;;13.68;;
59907;SDS011;61804;54.926;73.496;2022-12-16T06:58:12;13.63;;;12.05;;
59907;SDS011;61804;54.926;73.496;2022-12-16T07:00:58;19.10;;;12.85;;
59907;SDS011;61804;54.926;73.496;2022-12-16T07:03:50;17.80;;;11.95;;
59907;SDS011;61804;54.926;73.496;2022-12-16T07:06:41;16.05;;;10.75;;
59907;SDS011;61804;54.926;73.496;2022-12-16T07:09:33;13.77;;;12.05;;
59907;SDS011;61804;54.926;73.496;2022-12-16T07:12:19;22.35;;;18.23;;
59907;SDS011;61804;54.926;73.496;2022-12-16T07:17:53;15.63;;;8.77;;
59907;SDS011;61804;54.926;73.496;2022-12-16T07:20:46;19.67;;;12.40;;
59907;SDS011;61804;54.926;73.496;2022-12-16T07:23:40;19.55;;;11.20;;
59907;SDS011;61804;54.926;73.496;2022-12-16T07:26:38;15.80;;;12.95;;
59907;SDS011;61804;54.926;73.496;2022-12-16T07:29:24;14.85;;;9.75;;
59907;SDS011;61804;54.926;73.496;2022-12-16T07:32:20;16.77;;;12.07;;
59907;SDS011;61804;54.926;73.496;2022-12-16T07:35:08;14.27;;;9.18;;
59907;SDS011;61804;54.926;73.496;2022-12-16T07:37:55;29.13;;;17.73;;
59907;SDS011;61804;54.926;73.496;2022-12-16T07:40:42;21.15;;;13.27;;
59907;SDS011;61804;54.926;73.496;2022-12-16T07:43:28;20.00;;;12.25;;
59907;SDS011;61804;54.926;73.496;2022-12-16T07:46:15;18.33;;;10.88;;
59907;SDS011;61804;54.926;73.496;2022-12-16T07:49:01;23.73;;;13.98;;
59907;SDS011;61804;54.926;73.496;2022-12-16T07:51:47;15.95;;;13.50;;
59907;SDS011;61804;54.926;73.496;2022-12-16T07:54:43;20.08;;;14.80;;
59907;SDS011;61804;54.926;73.496;2022-12-16T07:57:28;15.27;;;12.02;;
59907;SDS011;61804;54.926;73.496;2022-12-16T08:00:18;22.73;;;14.25;;
59907;SDS011;61804;54.926;73.496;2022-12-16T08:03:06;23.08;;;12.27;;
59907;SDS011;61804;54.926;73.496;2022-12-16T08:05:52;19.35;;;12.88;;
59907;SDS011;61804;54.926;73.496;2022-12-16T08:08:44;12.45;;;10.13;;
59907;SDS011;61804;54.926;73.496;2022-12-16T08:11:30;17.77;;;12.98;;
59907;SDS011;61804;54.926;73.496;2022-12-16T08:14:15;15.57;;;11.27;;
59907;SDS011;61804;54.926;73.496;2022-12-16T08:17:20;22.33;;;15.13;;
59907;SDS011;61804;54.926;73.496;2022-12-16T08:20:06;21.75;;;10.95;;
59907;SDS011;61804;54.926;73.496;2022-12-16T08:22:52;21.70;;;14.73;;
59907;SDS011;61804;54.926;73.496;2022-12-16T08:25:47;15.20;;;11.93;;
59907;SDS011;61804;54.926;73.496;2022-12-16T08:28:35;17.67;;;11.20;;
59907;SDS011;61804;54.926;73.496;2022-12-16T08:31:41;19.42;;;10.85;;
59907;SDS011;61804;54.926;73.496;2022-12-16T08:34:28;13.48;;;9.10;;
59907;SDS011;61804;54.926;73.496;2022-12-16T08:37:13;10.25;;;9.25;;
59907;SDS011;61804;54.926;73.496;2022-12-16T08:40:00;25.58;;;18.27;;
59907;SDS011;61804;54.926;73.496;2022-12-16T08:42:46;14.32;;;10.43;;
59907;SDS011;61804;54.926;73.496;2022-12-16T08:45:34;20.70;;;12.43;;
59907;SDS011;61804;54.926;73.496;2022-12-16T08:48:21;21.08;;;9.63;;
59907;SDS011;61804;54.926;73.496;2022-12-16T08:51:07;19.45;;;12.20;;
59907;SDS011;61804;54.926;73.496;2022-12-16T08:53:52;16.33;;;11.10;;
59907;SDS011;61804;54.926;73.496;2022-12-16T08:59:24;13.05;;;11.18;;
59907;SDS011;61804;54.926;73.496;2022-12-16T09:02:10;15.20;;;12.20;;
59907;SDS011;61804;54.926;73.496;2022-12-16T09:04:56;20.50;;;13.82;;
59907;SDS011;61804;54.926;73.496;2022-12-16T09:07:52;13.75;;;10.95;;
59907;SDS011;61804;54.926;73.496;2022-12-16T09:11:02;30.00;;;16.08;;
59907;SDS011;61804;54.926;73.496;2022-12-16T09:13:48;17.67;;;12.40;;
59907;SDS011;61804;54.926;73.496;2022-12-16T09:16:36;18.25;;;9.70;;
59907;SDS011;61804;54.926;73.496;2022-12-16T09:19:22;16.40;;;10.50;;
59907;SDS011;61804;54.926;73.496;2022-12-16T09:22:13;16.73;;;11.00;;
59907;SDS011;61804;54.926;73.496;2022-12-16T09:24:59;21.73;;;11.75;;
59907;SDS011;61804;54.926;73.496;2022-12-16T09:27:48;37.25;;;29.08;;
59907;SDS011;61804;54.926;73.496;2022-12-16T09:30:39;20.02;;;16.33;;
59907;SDS011;61804;54.926;73.496;2022-12-16T09:33:25;24.63;;;14.77;;
59907;SDS011;61804;54.926;73.496;2022-12-16T09:36:12;19.42;;;13.35;;
59907;SDS011;61804;54.926;73.496;2022-12-16T09:39:03;20.35;;;14.65;;
59907;SDS011;61804;54.926;73.496;2022-12-16T09:42:00;15.35;;;12.02;;
59907;SDS011;61804;54.926;73.496;2022-12-16T09:45:01;20.75;;;12.73;;
59907;SDS011;61804;54.926;73.496;2022-12-16T09:50:40;26.83;;;19.17;;
59907;SDS011;61804;54.926;73.496;2022-12-16T09:53:27;18.77;;;11.90;;
59907;SDS011;61804;54.926;73.496;2022-12-16T09:56:17;12.93;;;8.15;;
59907;SDS011;61804;54.926;73.496;2022-12-16T09:59:13;19.38;;;8.55;;
59907;SDS011;61804;54.926;73.496;2022-12-16T10:02:00;18.23;;;10.25;;
59907;SDS011;61804;54.926;73.496;2022-12-16T10:04:50;16.33;;;9.35;;
59907;SDS011;61804;54.926;73.496;2022-12-16T10:07:37;22.25;;;11.68;;
59907;SDS011;61804;54.926;73.496;2022-12-16T10:10:40;21.67;;;11.13;;
59907;SDS011;61804;54.926;73.496;2022-12-16T10:13:34;32.97;;;15.63;;
59907;SDS011;61804;54.926;73.496;2022-12-16T10:25:27;45.38;;;26.63;;
59907;SDS011;61804;54.926;73.496;2022-12-16T10:31:17;88.10;;;41.38;;
59907;SDS011;61804;54.926;73.496;2022-12-16T10:34:15;65.05;;;29.20;;
59907;SDS011;61804;54.926;73.496;2022-12-16T10:37:03;131.15;;;55.88;;
59907;SDS011;61804;54.926;73.496;2022-12-16T10:39:50;112.28;;;54.20;;
59907;SDS011;61804;54.926;73.496;2022-12-16T10:42:54;123.35;;;57.50;;
59907;SDS011;61804;54.926;73.496;2022-12-16T10:45:43;82.40;;;44.15;;
59907;SDS011;61804;54.926;73.496;2022-12-16T10:48:30;29.23;;;15.98;;
59907;SDS011;61804;54.926;73.496;2022-12-16T10:51:22;20.30;;;12.27;;
59907;SDS011;61804;54.926;73.496;2022-12-16T10:54:17;29.83;;;12.30;;
59907;SDS011;61804;54.926;73.496;2022-12-16T10:57:08;38.25;;;20.17;;
59907;SDS011;61804;54.926;73.496;2022-12-16T11:00:07;58.25;;;27.20;;
59907;SDS011;61804;54.926;73.496;2022-12-16T11:03:16;56.58;;;31.38;;
59907;SDS011;61804;54.926;73.496;2022-12-16T11:06:15;116.82;;;60.67;;
59907;SDS011;61804;54.926;73.496;2022-12-16T11:09:26;144.70;;;75.18;;
59907;SDS011;61804;54.926;73.496;2022-12-16T11:12:23;60.33;;;33.72;;
59907;SDS011;61804;54.926;73.496;2022-12-16T11:15:21;40.70;;;21.05;;
59907;SDS011;61804;54.926;73.496;2022-12-16T11:18:20;26.38;;;17.20;;
59907;SDS011;61804;54.926;73.496;2022-12-16T11:21:11;62.28;;;36.58;;
59907;SDS011;61804;54.926;73.496;2022-12-16T11:27:00;63.50;;;28.77;;
59907;SDS011;61804;54.926;73.496;2022-12-16T11:29:52;61.72;;;31.58;;
59907;SDS011;61804;54.926;73.496;2022-12-16T11:32:50;56.00;;;25.80;;
59907;SDS011;61804;54.926;73.496;2022-12-16T11:35:46;53.05;;;25.92;;
59907;SDS011;61804;54.926;73.496;2022-12-16T11:38:36;51.13;;;22.08;;
59907;SDS011;61804;54.926;73.496;2022-12-16T11:41:32;35.53;;;20.98;;
59907;SDS011;61804;54.926;73.496;2022-12-16T11:44:34;32.13;;;18.27;;
59907;SDS011;61804;54.926;73.496;2022-12-16T11:50:13;50.60;;;22.75;;
59907;SDS011;61804;54.926;73.496;2022-12-16T11:53:01;37.95;;;24.75;;
59907;SDS011;61804;54.926;73.496;2022-12-16T11:55:54;24.02;;;17.35;;
59907;SDS011;61804;54.926;73.496;2022-12-16T11:58:44;37.75;;;21.58;;
59907;SDS011;61804;54.926;73.496;2022-12-16T12:01:38;27.13;;;17.58;;
59907;SDS011;61804;54.926;73.496;2022-12-16T12:04:26;33.42;;;18.70;;
59907;SDS011;61804;54.926;73.496;2022-12-16T12:07:34;39.10;;;24.50;;
59907;SDS011;61804;54.926;73.496;2022-12-16T12:13:32;74.70;;;36.95;;
59907;SDS011;61804;54.926;73.496;2022-12-16T12:19:32;152.07;;;71.85;;
59907;SDS011;61804;54.926;73.496;2022-12-16T12:22:26;112.93;;;58.13;;
59907;SDS011;61804;54.926;73.496;2022-12-16T12:25:33;98.68;;;56.05;;
59907;SDS011;61804;54.926;73.496;2022-12-16T12:28:35;67.05;;;40.63;;
59907;SDS011;61804;54.926;73.496;2022-12-16T12:43:08;63.47;;;24.27;;
59907;SDS011;61804;54.926;73.496;2022-12-16T12:49:00;64.82;;;33.25;;
59907;SDS011;61804;54.926;73.496;2022-12-16T12:55:00;55.17;;;27.40;;
59907;SDS011;61804;54.926;73.496;2022-12-16T12:57:50;38.38;;;20.67;;
59907;SDS011;61804;54.926;73.496;2022-12-16T13:00:41;52.65;;;28.00;;
59907;SDS011;61804;54.926;73.496;2022-12-16T13:03:39;61.28;;;28.92;;
59907;SDS011;61804;54.926;73.496;2022-12-16T13:06:28;49.35;;;28.30;;
59907;SDS011;61804;54.926;73.496;2022-12-16T13:09:32;46.00;;;24.48;;
59907;SDS011;61804;54.926;73.496;2022-12-16T13:12:23;46.10;;;23.30;;
59907;SDS011;61804;54.926;73.496;2022-12-16T13:15:10;63.00;;;37.90;;
59907;SDS011;61804;54.926;73.496;2022-12-16T13:20:49;77.03;;;42.17;;
59907;SDS011;61804;54.926;73.496;2022-12-16T13:23:35;105.80;;;53.70;;
59907;SDS011;61804;54.926;73.496;2022-12-16T13:26:26;81.30;;;42.85;;
59907;SDS011;61804;54.926;73.496;2022-12-16T13:29:20;75.20;;;40.88;;
59907;SDS011;61804;54.926;73.496;2022-12-16T13:38:03;76.68;;;43.45;;
59907;SDS011;61804;54.926;73.496;2022-12-16T13:40:54;136.73;;;69.35;;
59907;SDS011;61804;54.926;73.496;2022-12-16T13:43:48;74.13;;;39.78;;
59907;SDS011;61804;54.926;73.496;2022-12-16T13:46:49;93.15;;;54.38;;
59907;SDS011;61804;54.926;73.496;2022-12-16T13:49:40;70.72;;;38.17;;
59907;SDS011;61804;54.926;73.496;2022-12-16T13:52:46;70.20;;;36.05;;
59907;SDS011;61804;54.926;73.496;2022-12-16T13:55:37;106.35;;;44.13;;
59907;SDS011;61804;54.926;73.496;2022-12-16T14:04:30;42.88;;;25.73;;
59907;SDS011;61804;54.926;73.496;2022-12-16T14:07:19;36.58;;;17.67;;
59907;SDS011;61804;54.926;73.496;2022-12-16T14:10:38;46.15;;;25.05;;
59907;SDS011;61804;54.926;73.496;2022-12-16T14:16:24;70.00;;;36.03;;
59907;SDS011;61804;54.926;73.496;2022-12-16T14:19:40;71.25;;;37.05;;
59907;SDS011;61804;54.926;73.496;2022-12-16T14:22:41;72.38;;;32.80;;
59907;SDS011;61804;54.926;73.496;2022-12-16T14:25:42;77.13;;;41.80;;
59907;SDS011;61804;54.926;73.496;2022-12-16T14:28:31;128.40;;;61.13;;
59907;SDS011;61804;54.926;73.496;2022-12-16T14:31:23;192.65;;;89.80;;
59907;SDS011;61804;54.926;73.496;2022-12-16T14:34:15;48.25;;;25.25;;
59907;SDS011;61804;54.926;73.496;2022-12-16T14:37:13;43.97;;;24.80;;
59907;SDS011;61804;54.926;73.496;2022-12-16T14:40:01;43.28;;;24.38;;
59907;SDS011;61804;54.926;73.496;2022-12-16T14:42:52;37.53;;;19.38;;
59907;SDS011;61804;54.926;73.496;2022-12-16T14:45:39;40.55;;;25.50;;
59907;SDS011;61804;54.926;73.496;2022-12-16T14:51:35;73.75;;;42.42;;
59907;SDS011;61804;54.926;73.496;2022-12-16T14:57:16;69.13;;;35.80;;
59907;SDS011;61804;54.926;73.496;2022-12-16T15:00:20;57.60;;;33.85;;
59907;SDS011;61804;54.926;73.496;2022-12-16T15:03:19;83.22;;;47.92;;
59907;SDS011;61804;54.926;73.496;2022-12-16T15:06:13;137.45;;;62.60;;
59907;SDS011;61804;54.926;73.496;2022-12-16T15:09:03;197.70;;;95.75;;
59907;SDS011;61804;54.926;73.496;2022-12-16T15:12:01;157.05;;;77.00;;
59907;SDS011;61804;54.926;73.496;2022-12-16T15:14:47;80.85;;;39.90;;
59907;SDS011;61804;54.926;73.496;2022-12-16T15:20:25;49.38;;;29.13;;
59907;SDS011;61804;54.926;73.496;2022-12-16T15:23:14;162.82;;;71.32;;
59907;SDS011;61804;54.926;73.496;2022-12-16T15:26:07;78.18;;;46.55;;
59907;SDS011;61804;54.926;73.496;2022-12-16T15:28:58;49.95;;;26.08;;
59907;SDS011;61804;54.926;73.496;2022-12-16T15:31:54;35.95;;;24.92;;
59907;SDS011;61804;54.926;73.496;2022-12-16T15:34:47;34.42;;;22.63;;
59907;SDS011;61804;54.926;73.496;2022-12-16T15:37:34;32.63;;;19.00;;
59907;SDS011;61804;54.926;73.496;2022-12-16T15:40:26;45.70;;;30.90;;
59907;SDS011;61804;54.926;73.496;2022-12-16T15:43:30;62.83;;;27.38;;
59907;SDS011;61804;54.926;73.496;2022-12-16T15:46:21;79.13;;;44.42;;
59907;SDS011;61804;54.926;73.496;2022-12-16T15:49:21;83.47;;;43.42;;
59907;SDS011;61804;54.926;73.496;2022-12-16T15:52:22;67.53;;;41.90;;
59907;SDS011;61804;54.926;73.496;2022-12-16T16:01:07;84.38;;;45.20;;
59907;SDS011;61804;54.926;73.496;2022-12-16T16:03:55;64.95;;;27.52;;
59907;SDS011;61804;54.926;73.496;2022-12-16T16:06:46;42.92;;;23.50;;
59907;SDS011;61804;54.926;73.496;2022-12-16T16:09:34;31.95;;;16.17;;
59907;SDS011;61804;54.926;73.496;2022-12-16T16:12:20;53.05;;;27.45;;
59907;SDS011;61804;54.926;73.496;2022-12-16T16:15:09;42.97;;;22.40;;
59907;SDS011;61804;54.926;73.496;2022-12-16T16:17:57;50.05;;;23.02;;
59907;SDS011;61804;54.926;73.496;2022-12-16T16:20:49;170.07;;;76.60;;
59907;SDS011;61804;54.926;73.496;2022-12-16T16:23:37;137.38;;;68.30;;
59907;SDS011;61804;54.926;73.496;2022-12-16T16:26:25;106.03;;;58.42;;
59907;SDS011;61804;54.926;73.496;2022-12-16T16:29:15;398.75;;;204.65;;
59907;SDS011;61804;54.926;73.496;2022-12-16T16:32:07;197.02;;;92.00;;
59907;SDS011;61804;54.926;73.496;2022-12-16T16:34:54;246.55;;;123.82;;
59907;SDS011;61804;54.926;73.496;2022-12-16T16:37:49;114.97;;;61.92;;
59907;SDS011;61804;54.926;73.496;2022-12-16T16:40:36;77.28;;;41.95;;
59907;SDS011;61804;54.926;73.496;2022-12-16T16:43:23;63.67;;;36.03;;
59907;SDS011;61804;54.926;73.496;2022-12-16T16:49:10;69.55;;;39.80;;
59907;SDS011;61804;54.926;73.496;2022-12-16T16:51:56;88.82;;;40.35;;
59907;SDS011;61804;54.926;73.496;2022-12-16T16:54:52;113.40;;;56.03;;
59907;SDS011;61804;54.926;73.496;2022-12-16T16:57:38;133.07;;;53.13;;
59907;SDS011;61804;54.926;73.496;2022-12-16T17:00:29;85.18;;;45.50;;
59907;SDS011;61804;54.926;73.496;2022-12-16T17:03:16;42.30;;;21.58;;
59907;SDS011;61804;54.926;73.496;2022-12-16T17:06:03;40.25;;;26.70;;
59907;SDS011;61804;54.926;73.496;2022-12-16T17:08:49;36.53;;;17.83;;
59907;SDS011;61804;54.926;73.496;2022-12-16T17:11:36;40.10;;;22.75;;
59907;SDS011;61804;54.926;73.496;2022-12-16T17:14:23;29.85;;;16.30;;
59907;SDS011;61804;54.926;73.496;2022-12-16T17:17:10;31.63;;;20.13;;
59907;SDS011;61804;54.926;73.496;2022-12-16T17:19:57;33.58;;;19.83;;
59907;SDS011;61804;54.926;73.496;2022-12-16T17:22:45;36.17;;;19.85;;
59907;SDS011;61804;54.926;73.496;2022-12-16T17:25:32;33.72;;;13.73;;
59907;SDS011;61804;54.926;73.496;2022-12-16T17:28:18;20.85;;;13.57;;
59907;SDS011;61804;54.926;73.496;2022-12-16T17:31:04;36.10;;;18.52;;
59907;SDS011;61804;54.926;73.496;2022-12-16T17:33:57;43.97;;;17.00;;
59907;SDS011;61804;54.926;73.496;2022-12-16T17:36:50;30.08;;;17.20;;
59907;SDS011;61804;54.926;73.496;2022-12-16T17:39:36;40.50;;;19.10;;
59907;SDS011;61804;54.926;73.496;2022-12-16T17:42:22;41.95;;;19.65;;
59907;SDS011;61804;54.926;73.496;2022-12-16T17:45:22;38.70;;;19.17;;
59907;SDS011;61804;54.926;73.496;2022-12-16T17:48:20;67.93;;;22.65;;
59907;SDS011;61804;54.926;73.496;2022-12-16T17:51:06;84.90;;;36.00;;
59907;SDS011;61804;54.926;73.496;2022-12-16T17:53:52;44.65;;;22.52;;
59907;SDS011;61804;54.926;73.496;2022-12-16T17:56:38;46.88;;;19.90;;
59907;SDS011;61804;54.926;73.496;2022-12-16T17:59:24;48.22;;;18.50;;
59907;SDS011;61804;54.926;73.496;2022-12-16T18:02:20;49.13;;;20.48;;
59907;SDS011;61804;54.926;73.496;2022-12-16T18:05:10;32.92;;;20.10;;